sensor_id;sensor_type;location;lat;lon;timestamp;P1;durP1;ratioP1;P2;durP2;ratioP2
21903;SDS011;11116;51.554;7.812;2022-07-23T00:00:04;26.45;;;15.18;;
21903;SDS011;11116;51.554;7.812;2022-07-23T00:02:32;24.63;;;15.68;;
21903;SDS011;11116;51.554;7.812;2022-07-23T00:04:59;21.70;;;15.05;;
21903;SDS011;11116;51.554;7.812;2022-07-23T00:07:25;21.48;;;15.23;;
21903;SDS011;11116;51.554;7.812;2022-07-23T00:09:54;23.38;;;15.63;;
21903;SDS011;11116;51.554;7.812;2022-07-23T00:12:21;26.88;;;15.68;;
21903;SDS011;11116;51.554;7.812;2022-07-23T00:14:47;22.05;;;15.00;;
21903;SDS011;11116;51.554;7.812;2022-07-23T00:17:14;19.77;;;13.90;;
21903;SDS011;11116;51.554;7.812;2022-07-23T00:19:41;24.42;;;15.85;;
21903;SDS011;11116;51.554;7.812;2022-07-23T00:22:08;25.92;;;14.80;;
21903;SDS011;11116;51.554;7.812;2022-07-23T00:24:34;20.80;;;14.60;;
21903;SDS011;11116;51.554;7.812;2022-07-23T00:27:03;21.25;;;14.38;;
21903;SDS011;11116;51.554;7.812;2022-07-23T00:29:29;21.05;;;15.13;;
21903;SDS011;11116;51.554;7.812;2022-07-23T00:31:56;18.55;;;12.90;;
21903;SDS011;11116;51.554;7.812;2022-07-23T00:34:23;23.05;;;13.23;;
21903;SDS011;11116;51.554;7.812;2022-07-23T00:36:50;19.92;;;13.60;;
21903;SDS011;11116;51.554;7.812;2022-07-23T00:39:18;21.35;;;14.23;;
21903;SDS011;11116;51.554;7.812;2022-07-23T00:41:46;26.42;;;15.30;;
21903;SDS011;11116;51.554;7.812;2022-07-23T00:44:18;26.45;;;15.18;;
21903;SDS011;11116;51.554;7.812;2022-07-23T00:46:46;22.83;;;14.88;;
21903;SDS011;11116;51.554;7.812;2022-07-23T00:49:14;26.55;;;15.45;;
21903;SDS011;11116;51.554;7.812;2022-07-23T00:51:41;25.63;;;15.52;;
21903;SDS011;11116;51.554;7.812;2022-07-23T00:54:08;24.52;;;15.18;;
21903;SDS011;11116;51.554;7.812;2022-07-23T00:56:35;23.77;;;15.90;;
21903;SDS011;11116;51.554;7.812;2022-07-23T00:59:02;26.48;;;17.10;;
21903;SDS011;11116;51.554;7.812;2022-07-23T01:01:30;21.27;;;15.23;;
21903;SDS011;11116;51.554;7.812;2022-07-23T01:03:57;25.42;;;16.00;;
21903;SDS011;11116;51.554;7.812;2022-07-23T01:06:23;23.90;;;16.58;;
21903;SDS011;11116;51.554;7.812;2022-07-23T01:08:50;24.58;;;16.70;;
21903;SDS011;11116;51.554;7.812;2022-07-23T01:11:17;22.65;;;15.90;;
21903;SDS011;11116;51.554;7.812;2022-07-23T01:13:45;25.27;;;16.88;;
21903;SDS011;11116;51.554;7.812;2022-07-23T01:16:12;24.25;;;15.95;;
21903;SDS011;11116;51.554;7.812;2022-07-23T01:18:40;22.92;;;16.55;;
21903;SDS011;11116;51.554;7.812;2022-07-23T01:21:07;26.35;;;16.33;;
21903;SDS011;11116;51.554;7.812;2022-07-23T01:23:39;29.52;;;16.65;;
21903;SDS011;11116;51.554;7.812;2022-07-23T01:26:06;26.42;;;16.30;;
21903;SDS011;11116;51.554;7.812;2022-07-23T01:28:33;24.20;;;17.35;;
21903;SDS011;11116;51.554;7.812;2022-07-23T01:31:00;28.42;;;17.17;;
21903;SDS011;11116;51.554;7.812;2022-07-23T01:33:31;23.15;;;16.63;;
21903;SDS011;11116;51.554;7.812;2022-07-23T01:35:57;30.80;;;18.27;;
21903;SDS011;11116;51.554;7.812;2022-07-23T01:38:25;26.33;;;18.52;;
21903;SDS011;11116;51.554;7.812;2022-07-23T01:40:53;26.15;;;16.77;;
21903;SDS011;11116;51.554;7.812;2022-07-23T01:43:21;32.13;;;17.05;;
21903;SDS011;11116;51.554;7.812;2022-07-23T01:45:47;27.90;;;15.65;;
21903;SDS011;11116;51.554;7.812;2022-07-23T01:48:14;27.02;;;18.40;;
21903;SDS011;11116;51.554;7.812;2022-07-23T01:50:54;25.55;;;17.77;;
21903;SDS011;11116;51.554;7.812;2022-07-23T01:53:32;28.75;;;18.10;;
21903;SDS011;11116;51.554;7.812;2022-07-23T01:56:00;23.83;;;16.77;;
21903;SDS011;11116;51.554;7.812;2022-07-23T01:58:28;29.63;;;18.50;;
21903;SDS011;11116;51.554;7.812;2022-07-23T02:00:55;28.70;;;18.20;;
21903;SDS011;11116;51.554;7.812;2022-07-23T02:03:22;31.48;;;18.20;;
21903;SDS011;11116;51.554;7.812;2022-07-23T02:05:49;25.75;;;18.08;;
21903;SDS011;11116;51.554;7.812;2022-07-23T02:08:16;28.30;;;19.08;;
21903;SDS011;11116;51.554;7.812;2022-07-23T02:10:43;26.98;;;16.20;;
21903;SDS011;11116;51.554;7.812;2022-07-23T02:13:12;26.70;;;16.67;;
21903;SDS011;11116;51.554;7.812;2022-07-23T02:15:39;27.60;;;17.80;;
21903;SDS011;11116;51.554;7.812;2022-07-23T02:18:06;25.58;;;16.55;;
21903;SDS011;11116;51.554;7.812;2022-07-23T02:20:33;23.80;;;16.60;;
21903;SDS011;11116;51.554;7.812;2022-07-23T02:23:00;25.08;;;15.85;;
21903;SDS011;11116;51.554;7.812;2022-07-23T02:25:27;26.60;;;18.02;;
21903;SDS011;11116;51.554;7.812;2022-07-23T02:27:58;27.98;;;17.00;;
21903;SDS011;11116;51.554;7.812;2022-07-23T02:30:26;27.65;;;18.23;;
21903;SDS011;11116;51.554;7.812;2022-07-23T02:32:53;25.50;;;16.80;;
21903;SDS011;11116;51.554;7.812;2022-07-23T02:35:20;24.08;;;17.77;;
21903;SDS011;11116;51.554;7.812;2022-07-23T02:37:47;28.85;;;18.05;;
21903;SDS011;11116;51.554;7.812;2022-07-23T02:40:14;27.10;;;17.83;;
21903;SDS011;11116;51.554;7.812;2022-07-23T02:42:42;24.92;;;17.00;;
21903;SDS011;11116;51.554;7.812;2022-07-23T02:45:09;26.65;;;17.75;;
21903;SDS011;11116;51.554;7.812;2022-07-23T02:47:39;27.48;;;16.05;;
21903;SDS011;11116;51.554;7.812;2022-07-23T02:50:08;27.95;;;18.50;;
21903;SDS011;11116;51.554;7.812;2022-07-23T02:52:37;24.23;;;17.40;;
21903;SDS011;11116;51.554;7.812;2022-07-23T02:55:04;27.35;;;16.92;;
21903;SDS011;11116;51.554;7.812;2022-07-23T02:57:32;26.30;;;17.25;;
21903;SDS011;11116;51.554;7.812;2022-07-23T02:59:58;24.13;;;17.17;;
21903;SDS011;11116;51.554;7.812;2022-07-23T03:02:25;23.25;;;15.98;;
21903;SDS011;11116;51.554;7.812;2022-07-23T03:04:54;25.85;;;17.17;;
21903;SDS011;11116;51.554;7.812;2022-07-23T03:07:21;26.33;;;16.88;;
21903;SDS011;11116;51.554;7.812;2022-07-23T03:09:47;25.60;;;17.27;;
21903;SDS011;11116;51.554;7.812;2022-07-23T03:12:14;28.52;;;17.95;;
21903;SDS011;11116;51.554;7.812;2022-07-23T03:14:41;22.35;;;15.27;;
21903;SDS011;11116;51.554;7.812;2022-07-23T03:17:08;23.05;;;16.42;;
21903;SDS011;11116;51.554;7.812;2022-07-23T03:19:35;27.30;;;17.50;;
21903;SDS011;11116;51.554;7.812;2022-07-23T03:22:04;20.33;;;14.82;;
21903;SDS011;11116;51.554;7.812;2022-07-23T03:24:31;23.80;;;15.93;;
21903;SDS011;11116;51.554;7.812;2022-07-23T03:27:13;26.52;;;17.33;;
21903;SDS011;11116;51.554;7.812;2022-07-23T03:29:39;23.08;;;17.00;;
21903;SDS011;11116;51.554;7.812;2022-07-23T03:32:06;25.13;;;18.23;;
21903;SDS011;11116;51.554;7.812;2022-07-23T03:34:33;23.45;;;16.20;;
21903;SDS011;11116;51.554;7.812;2022-07-23T03:37:00;31.20;;;19.60;;
21903;SDS011;11116;51.554;7.812;2022-07-23T03:39:28;24.80;;;17.25;;
21903;SDS011;11116;51.554;7.812;2022-07-23T03:41:55;31.30;;;18.05;;
21903;SDS011;11116;51.554;7.812;2022-07-23T03:44:22;29.75;;;15.80;;
21903;SDS011;11116;51.554;7.812;2022-07-23T03:46:49;27.83;;;18.05;;
21903;SDS011;11116;51.554;7.812;2022-07-23T03:49:16;22.88;;;16.17;;
21903;SDS011;11116;51.554;7.812;2022-07-23T03:51:42;22.58;;;16.75;;
21903;SDS011;11116;51.554;7.812;2022-07-23T03:54:09;23.00;;;15.27;;
21903;SDS011;11116;51.554;7.812;2022-07-23T03:56:37;20.63;;;15.63;;
21903;SDS011;11116;51.554;7.812;2022-07-23T03:59:04;27.40;;;17.38;;
21903;SDS011;11116;51.554;7.812;2022-07-23T04:01:31;21.73;;;15.75;;
21903;SDS011;11116;51.554;7.812;2022-07-23T04:03:57;20.30;;;15.50;;
21903;SDS011;11116;51.554;7.812;2022-07-23T04:06:24;17.60;;;13.45;;
21903;SDS011;11116;51.554;7.812;2022-07-23T04:08:53;18.67;;;10.30;;
21903;SDS011;11116;51.554;7.812;2022-07-23T04:11:20;31.38;;;10.60;;
21903;SDS011;11116;51.554;7.812;2022-07-23T04:13:48;11.98;;;10.07;;
21903;SDS011;11116;51.554;7.812;2022-07-23T04:16:15;27.85;;;11.80;;
21903;SDS011;11116;51.554;7.812;2022-07-23T04:18:42;13.05;;;10.10;;
21903;SDS011;11116;51.554;7.812;2022-07-23T04:21:14;13.80;;;11.43;;
21903;SDS011;11116;51.554;7.812;2022-07-23T04:23:41;15.73;;;11.57;;
21903;SDS011;11116;51.554;7.812;2022-07-23T04:26:08;14.30;;;12.70;;
21903;SDS011;11116;51.554;7.812;2022-07-23T04:28:35;15.35;;;13.00;;
21903;SDS011;11116;51.554;7.812;2022-07-23T04:31:04;18.23;;;14.07;;
21903;SDS011;11116;51.554;7.812;2022-07-23T04:33:33;18.30;;;13.65;;
21903;SDS011;11116;51.554;7.812;2022-07-23T04:36:04;16.70;;;13.73;;
21903;SDS011;11116;51.554;7.812;2022-07-23T04:38:31;20.02;;;14.70;;
21903;SDS011;11116;51.554;7.812;2022-07-23T04:41:01;24.50;;;17.77;;
21903;SDS011;11116;51.554;7.812;2022-07-23T04:43:27;20.00;;;14.40;;
21903;SDS011;11116;51.554;7.812;2022-07-23T04:45:54;22.02;;;14.95;;
21903;SDS011;11116;51.554;7.812;2022-07-23T04:48:22;22.73;;;13.73;;
21903;SDS011;11116;51.554;7.812;2022-07-23T04:50:57;25.23;;;16.10;;
21903;SDS011;11116;51.554;7.812;2022-07-23T04:53:27;32.10;;;15.55;;
21903;SDS011;11116;51.554;7.812;2022-07-23T04:55:57;25.40;;;16.55;;
21903;SDS011;11116;51.554;7.812;2022-07-23T04:58:24;33.08;;;17.60;;
21903;SDS011;11116;51.554;7.812;2022-07-23T05:00:50;27.92;;;17.45;;
21903;SDS011;11116;51.554;7.812;2022-07-23T05:03:17;26.05;;;16.55;;
21903;SDS011;11116;51.554;7.812;2022-07-23T05:05:47;23.25;;;15.85;;
21903;SDS011;11116;51.554;7.812;2022-07-23T05:08:16;27.70;;;16.45;;
21903;SDS011;11116;51.554;7.812;2022-07-23T05:10:48;33.25;;;17.48;;
21903;SDS011;11116;51.554;7.812;2022-07-23T05:13:16;35.17;;;18.77;;
21903;SDS011;11116;51.554;7.812;2022-07-23T05:15:43;20.65;;;17.13;;
21903;SDS011;11116;51.554;7.812;2022-07-23T05:18:09;22.55;;;16.45;;
21903;SDS011;11116;51.554;7.812;2022-07-23T05:20:36;33.97;;;17.33;;
21903;SDS011;11116;51.554;7.812;2022-07-23T05:23:05;26.75;;;18.35;;
21903;SDS011;11116;51.554;7.812;2022-07-23T05:25:33;26.67;;;18.67;;
21903;SDS011;11116;51.554;7.812;2022-07-23T05:28:00;31.00;;;20.73;;
21903;SDS011;11116;51.554;7.812;2022-07-23T05:30:27;28.15;;;18.42;;
21903;SDS011;11116;51.554;7.812;2022-07-23T05:32:58;28.80;;;16.98;;
21903;SDS011;11116;51.554;7.812;2022-07-23T05:35:25;22.08;;;16.42;;
21903;SDS011;11116;51.554;7.812;2022-07-23T05:38:14;23.05;;;13.98;;
21903;SDS011;11116;51.554;7.812;2022-07-23T05:40:41;27.70;;;17.70;;
21903;SDS011;11116;51.554;7.812;2022-07-23T05:43:08;27.42;;;17.27;;
21903;SDS011;11116;51.554;7.812;2022-07-23T05:45:34;29.33;;;17.92;;
21903;SDS011;11116;51.554;7.812;2022-07-23T05:48:01;24.88;;;17.17;;
21903;SDS011;11116;51.554;7.812;2022-07-23T05:50:33;29.80;;;18.27;;
21903;SDS011;11116;51.554;7.812;2022-07-23T05:53:28;24.33;;;17.05;;
21903;SDS011;11116;51.554;7.812;2022-07-23T05:56:05;25.38;;;17.20;;
21903;SDS011;11116;51.554;7.812;2022-07-23T05:58:32;25.67;;;18.58;;
21903;SDS011;11116;51.554;7.812;2022-07-23T06:00:59;24.73;;;17.83;;
21903;SDS011;11116;51.554;7.812;2022-07-23T06:03:28;27.80;;;19.50;;
21903;SDS011;11116;51.554;7.812;2022-07-23T06:05:56;28.35;;;19.30;;
21903;SDS011;11116;51.554;7.812;2022-07-23T06:08:23;29.48;;;19.05;;
21903;SDS011;11116;51.554;7.812;2022-07-23T06:10:51;28.45;;;19.17;;
21903;SDS011;11116;51.554;7.812;2022-07-23T06:13:18;27.92;;;19.55;;
21903;SDS011;11116;51.554;7.812;2022-07-23T06:15:45;24.33;;;18.35;;
21903;SDS011;11116;51.554;7.812;2022-07-23T06:18:12;25.83;;;19.25;;
21903;SDS011;11116;51.554;7.812;2022-07-23T06:20:39;26.88;;;19.63;;
21903;SDS011;11116;51.554;7.812;2022-07-23T06:23:06;25.95;;;18.55;;
21903;SDS011;11116;51.554;7.812;2022-07-23T06:25:33;25.40;;;19.00;;
21903;SDS011;11116;51.554;7.812;2022-07-23T06:28:01;32.97;;;19.30;;
21903;SDS011;11116;51.554;7.812;2022-07-23T06:30:27;29.25;;;18.58;;
21903;SDS011;11116;51.554;7.812;2022-07-23T06:32:54;24.52;;;18.83;;
21903;SDS011;11116;51.554;7.812;2022-07-23T06:35:21;22.75;;;17.70;;
21903;SDS011;11116;51.554;7.812;2022-07-23T06:37:48;23.58;;;18.23;;
21903;SDS011;11116;51.554;7.812;2022-07-23T06:40:15;25.17;;;19.08;;
21903;SDS011;11116;51.554;7.812;2022-07-23T06:42:42;23.13;;;17.42;;
21903;SDS011;11116;51.554;7.812;2022-07-23T06:45:16;22.42;;;16.60;;
21903;SDS011;11116;51.554;7.812;2022-07-23T06:47:43;26.05;;;17.35;;
21903;SDS011;11116;51.554;7.812;2022-07-23T06:50:10;23.23;;;17.90;;
21903;SDS011;11116;51.554;7.812;2022-07-23T06:52:36;23.17;;;17.13;;
21903;SDS011;11116;51.554;7.812;2022-07-23T06:55:04;26.70;;;17.98;;
21903;SDS011;11116;51.554;7.812;2022-07-23T06:57:32;26.70;;;17.55;;
21903;SDS011;11116;51.554;7.812;2022-07-23T06:59:58;26.50;;;18.45;;
21903;SDS011;11116;51.554;7.812;2022-07-23T07:02:26;21.27;;;16.60;;
21903;SDS011;11116;51.554;7.812;2022-07-23T07:04:54;24.00;;;17.02;;
21903;SDS011;11116;51.554;7.812;2022-07-23T07:07:21;25.10;;;17.80;;
21903;SDS011;11116;51.554;7.812;2022-07-23T07:09:48;21.70;;;16.50;;
21903;SDS011;11116;51.554;7.812;2022-07-23T07:12:15;24.92;;;17.02;;
21903;SDS011;11116;51.554;7.812;2022-07-23T07:14:42;21.13;;;17.27;;
21903;SDS011;11116;51.554;7.812;2022-07-23T07:17:08;23.85;;;17.35;;
21903;SDS011;11116;51.554;7.812;2022-07-23T07:19:52;22.10;;;16.38;;
21903;SDS011;11116;51.554;7.812;2022-07-23T07:23:21;24.88;;;16.55;;
21903;SDS011;11116;51.554;7.812;2022-07-23T07:25:47;18.50;;;15.43;;
21903;SDS011;11116;51.554;7.812;2022-07-23T07:28:14;23.27;;;16.08;;
21903;SDS011;11116;51.554;7.812;2022-07-23T07:30:41;25.23;;;17.38;;
21903;SDS011;11116;51.554;7.812;2022-07-23T07:33:08;36.97;;;17.67;;
21903;SDS011;11116;51.554;7.812;2022-07-23T07:35:36;19.95;;;15.93;;
21903;SDS011;11116;51.554;7.812;2022-07-23T07:38:02;25.75;;;16.63;;
21903;SDS011;11116;51.554;7.812;2022-07-23T07:40:29;24.02;;;17.30;;
21903;SDS011;11116;51.554;7.812;2022-07-23T07:42:56;28.35;;;19.40;;
21903;SDS011;11116;51.554;7.812;2022-07-23T07:45:23;27.23;;;17.92;;
21903;SDS011;11116;51.554;7.812;2022-07-23T07:47:50;23.05;;;17.92;;
21903;SDS011;11116;51.554;7.812;2022-07-23T07:50:18;27.08;;;17.67;;
21903;SDS011;11116;51.554;7.812;2022-07-23T07:52:46;19.95;;;14.95;;
21903;SDS011;11116;51.554;7.812;2022-07-23T07:55:13;25.17;;;16.40;;
21903;SDS011;11116;51.554;7.812;2022-07-23T07:57:40;22.17;;;15.13;;
21903;SDS011;11116;51.554;7.812;2022-07-23T08:00:07;19.88;;;13.77;;
21903;SDS011;11116;51.554;7.812;2022-07-23T08:02:39;18.45;;;14.50;;
21903;SDS011;11116;51.554;7.812;2022-07-23T08:05:07;21.40;;;15.57;;
21903;SDS011;11116;51.554;7.812;2022-07-23T08:07:34;23.23;;;14.88;;
21903;SDS011;11116;51.554;7.812;2022-07-23T08:10:04;18.63;;;14.40;;
21903;SDS011;11116;51.554;7.812;2022-07-23T08:12:37;17.25;;;15.32;;
21903;SDS011;11116;51.554;7.812;2022-07-23T08:15:05;19.65;;;16.10;;
21903;SDS011;11116;51.554;7.812;2022-07-23T08:17:32;17.30;;;14.27;;
21903;SDS011;11116;51.554;7.812;2022-07-23T08:19:59;23.15;;;13.95;;
21903;SDS011;11116;51.554;7.812;2022-07-23T08:22:40;14.95;;;12.30;;
21903;SDS011;11116;51.554;7.812;2022-07-23T08:25:12;16.10;;;13.30;;
21903;SDS011;11116;51.554;7.812;2022-07-23T08:27:39;18.42;;;12.48;;
21903;SDS011;11116;51.554;7.812;2022-07-23T08:30:07;14.25;;;10.73;;
21903;SDS011;11116;51.554;7.812;2022-07-23T08:32:47;19.45;;;14.82;;
21903;SDS011;11116;51.554;7.812;2022-07-23T08:35:14;21.52;;;14.60;;
21903;SDS011;11116;51.554;7.812;2022-07-23T08:37:41;19.52;;;14.50;;
21903;SDS011;11116;51.554;7.812;2022-07-23T08:40:09;18.90;;;12.75;;
21903;SDS011;11116;51.554;7.812;2022-07-23T08:42:38;19.42;;;13.15;;
21903;SDS011;11116;51.554;7.812;2022-07-23T08:45:06;18.15;;;13.35;;
21903;SDS011;11116;51.554;7.812;2022-07-23T08:47:34;19.35;;;16.00;;
21903;SDS011;11116;51.554;7.812;2022-07-23T08:50:02;21.58;;;15.20;;
21903;SDS011;11116;51.554;7.812;2022-07-23T08:52:30;17.58;;;15.10;;
21903;SDS011;11116;51.554;7.812;2022-07-23T08:54:57;17.58;;;13.07;;
21903;SDS011;11116;51.554;7.812;2022-07-23T08:57:24;20.70;;;15.60;;
21903;SDS011;11116;51.554;7.812;2022-07-23T08:59:52;16.45;;;13.73;;
21903;SDS011;11116;51.554;7.812;2022-07-23T09:02:19;18.48;;;14.93;;
21903;SDS011;11116;51.554;7.812;2022-07-23T09:04:46;18.92;;;14.93;;
21903;SDS011;11116;51.554;7.812;2022-07-23T09:07:12;16.25;;;13.57;;
21903;SDS011;11116;51.554;7.812;2022-07-23T09:09:39;16.73;;;14.52;;
21903;SDS011;11116;51.554;7.812;2022-07-23T09:12:07;17.05;;;14.93;;
21903;SDS011;11116;51.554;7.812;2022-07-23T09:14:39;18.52;;;15.25;;
21903;SDS011;11116;51.554;7.812;2022-07-23T09:17:12;18.65;;;14.85;;
21903;SDS011;11116;51.554;7.812;2022-07-23T09:19:41;16.45;;;13.68;;
21903;SDS011;11116;51.554;7.812;2022-07-23T09:22:18;16.35;;;14.57;;
21903;SDS011;11116;51.554;7.812;2022-07-23T09:25:07;15.05;;;12.20;;
21903;SDS011;11116;51.554;7.812;2022-07-23T09:27:50;15.98;;;12.82;;
21903;SDS011;11116;51.554;7.812;2022-07-23T09:30:19;16.55;;;13.10;;
21903;SDS011;11116;51.554;7.812;2022-07-23T09:35:43;11.20;;;7.85;;
21903;SDS011;11116;51.554;7.812;2022-07-23T09:38:14;11.25;;;8.52;;
21903;SDS011;11116;51.554;7.812;2022-07-23T09:40:41;10.98;;;7.82;;
21903;SDS011;11116;51.554;7.812;2022-07-23T09:43:09;11.93;;;8.40;;
21903;SDS011;11116;51.554;7.812;2022-07-23T09:45:36;9.00;;;7.15;;
21903;SDS011;11116;51.554;7.812;2022-07-23T09:48:12;8.38;;;6.72;;
21903;SDS011;11116;51.554;7.812;2022-07-23T09:50:40;8.70;;;7.03;;
21903;SDS011;11116;51.554;7.812;2022-07-23T09:53:07;6.95;;;6.25;;
21903;SDS011;11116;51.554;7.812;2022-07-23T09:55:35;9.40;;;6.70;;
21903;SDS011;11116;51.554;7.812;2022-07-23T09:58:04;7.38;;;5.93;;
21903;SDS011;11116;51.554;7.812;2022-07-23T10:00:32;9.52;;;6.63;;
21903;SDS011;11116;51.554;7.812;2022-07-23T10:02:59;7.57;;;5.75;;
21903;SDS011;11116;51.554;7.812;2022-07-23T10:05:49;10.55;;;6.65;;
21903;SDS011;11116;51.554;7.812;2022-07-23T10:08:55;8.93;;;5.63;;
21903;SDS011;11116;51.554;7.812;2022-07-23T10:11:51;9.18;;;6.00;;
21903;SDS011;11116;51.554;7.812;2022-07-23T10:14:39;8.25;;;5.70;;
21903;SDS011;11116;51.554;7.812;2022-07-23T10:17:07;6.05;;;5.45;;
21903;SDS011;11116;51.554;7.812;2022-07-23T10:19:35;9.70;;;5.40;;
21903;SDS011;11116;51.554;7.812;2022-07-23T10:22:04;7.63;;;4.63;;
21903;SDS011;11116;51.554;7.812;2022-07-23T10:24:45;4.65;;;4.13;;
21903;SDS011;11116;51.554;7.812;2022-07-23T10:30:12;6.53;;;4.95;;
21903;SDS011;11116;51.554;7.812;2022-07-23T10:32:45;6.40;;;5.68;;
21903;SDS011;11116;51.554;7.812;2022-07-23T10:35:26;7.78;;;4.78;;
21903;SDS011;11116;51.554;7.812;2022-07-23T10:38:02;9.18;;;5.80;;
21903;SDS011;11116;51.554;7.812;2022-07-23T10:40:33;6.60;;;4.47;;
21903;SDS011;11116;51.554;7.812;2022-07-23T10:43:00;7.63;;;5.88;;
21903;SDS011;11116;51.554;7.812;2022-07-23T10:45:28;8.13;;;6.38;;
21903;SDS011;11116;51.554;7.812;2022-07-23T10:48:11;7.72;;;6.45;;
21903;SDS011;11116;51.554;7.812;2022-07-23T10:50:40;11.35;;;6.70;;
21903;SDS011;11116;51.554;7.812;2022-07-23T10:53:09;10.45;;;9.35;;
21903;SDS011;11116;51.554;7.812;2022-07-23T10:55:40;9.80;;;6.30;;
21903;SDS011;11116;51.554;7.812;2022-07-23T10:58:09;10.48;;;5.30;;
21903;SDS011;11116;51.554;7.812;2022-07-23T11:00:36;7.35;;;4.65;;
21903;SDS011;11116;51.554;7.812;2022-07-23T11:03:04;6.38;;;5.13;;
21903;SDS011;11116;51.554;7.812;2022-07-23T11:05:52;7.82;;;4.32;;
21903;SDS011;11116;51.554;7.812;2022-07-23T11:08:20;8.73;;;4.72;;
21903;SDS011;11116;51.554;7.812;2022-07-23T11:10:48;6.03;;;5.43;;
21903;SDS011;11116;51.554;7.812;2022-07-23T11:13:28;8.38;;;5.20;;
21903;SDS011;11116;51.554;7.812;2022-07-23T11:16:20;8.40;;;6.60;;
21903;SDS011;11116;51.554;7.812;2022-07-23T11:18:53;7.10;;;6.40;;
21903;SDS011;11116;51.554;7.812;2022-07-23T11:21:41;5.80;;;5.03;;
21903;SDS011;11116;51.554;7.812;2022-07-23T11:24:20;7.40;;;6.43;;
21903;SDS011;11116;51.554;7.812;2022-07-23T11:27:01;5.43;;;4.45;;
21903;SDS011;11116;51.554;7.812;2022-07-23T11:32:22;4.25;;;3.65;;
21903;SDS011;11116;51.554;7.812;2022-07-23T11:34:51;5.82;;;4.35;;
21903;SDS011;11116;51.554;7.812;2022-07-23T11:37:32;6.72;;;4.15;;
21903;SDS011;11116;51.554;7.812;2022-07-23T11:40:04;5.55;;;3.95;;
21903;SDS011;11116;51.554;7.812;2022-07-23T11:42:34;3.60;;;3.08;;
21903;SDS011;11116;51.554;7.812;2022-07-23T11:45:02;7.50;;;3.03;;
21903;SDS011;11116;51.554;7.812;2022-07-23T11:47:29;3.83;;;3.05;;
21903;SDS011;11116;51.554;7.812;2022-07-23T11:49:57;3.33;;;2.45;;
21903;SDS011;11116;51.554;7.812;2022-07-23T11:52:24;4.28;;;3.80;;
21903;SDS011;11116;51.554;7.812;2022-07-23T11:54:53;6.53;;;4.05;;
21903;SDS011;11116;51.554;7.812;2022-07-23T11:57:23;3.60;;;3.30;;
21903;SDS011;11116;51.554;7.812;2022-07-23T11:59:52;6.13;;;3.95;;
21903;SDS011;11116;51.554;7.812;2022-07-23T12:02:22;3.85;;;3.42;;
21903;SDS011;11116;51.554;7.812;2022-07-23T12:04:51;3.85;;;3.50;;
21903;SDS011;11116;51.554;7.812;2022-07-23T12:07:22;4.38;;;2.83;;
21903;SDS011;11116;51.554;7.812;2022-07-23T12:09:58;7.82;;;3.60;;
21903;SDS011;11116;51.554;7.812;2022-07-23T12:12:37;3.38;;;2.50;;
21903;SDS011;11116;51.554;7.812;2022-07-23T12:15:05;3.17;;;2.53;;
21903;SDS011;11116;51.554;7.812;2022-07-23T12:17:33;3.47;;;3.03;;
21903;SDS011;11116;51.554;7.812;2022-07-23T12:20:02;3.55;;;3.15;;
21903;SDS011;11116;51.554;7.812;2022-07-23T12:22:35;4.97;;;2.92;;
21903;SDS011;11116;51.554;7.812;2022-07-23T12:25:04;3.60;;;2.58;;
21903;SDS011;11116;51.554;7.812;2022-07-23T12:27:33;3.08;;;2.80;;
21903;SDS011;11116;51.554;7.812;2022-07-23T12:30:14;3.85;;;2.67;;
21903;SDS011;11116;51.554;7.812;2022-07-23T12:32:45;2.38;;;2.13;;
21903;SDS011;11116;51.554;7.812;2022-07-23T12:35:13;1.90;;;1.80;;
21903;SDS011;11116;51.554;7.812;2022-07-23T12:37:40;5.45;;;2.47;;
21903;SDS011;11116;51.554;7.812;2022-07-23T12:40:19;2.08;;;1.88;;
21903;SDS011;11116;51.554;7.812;2022-07-23T12:42:53;3.88;;;3.10;;
21903;SDS011;11116;51.554;7.812;2022-07-23T12:45:22;4.28;;;2.90;;
21903;SDS011;11116;51.554;7.812;2022-07-23T12:47:50;2.97;;;2.60;;
21903;SDS011;11116;51.554;7.812;2022-07-23T12:50:31;5.15;;;2.85;;
21903;SDS011;11116;51.554;7.812;2022-07-23T12:53:04;3.05;;;2.25;;
21903;SDS011;11116;51.554;7.812;2022-07-23T12:55:32;4.40;;;2.63;;
21903;SDS011;11116;51.554;7.812;2022-07-23T12:58:04;4.30;;;3.03;;
21903;SDS011;11116;51.554;7.812;2022-07-23T13:03:24;7.28;;;3.00;;
21903;SDS011;11116;51.554;7.812;2022-07-23T13:05:54;2.42;;;2.17;;
21903;SDS011;11116;51.554;7.812;2022-07-23T13:08:21;2.67;;;2.47;;
21903;SDS011;11116;51.554;7.812;2022-07-23T13:10:51;3.05;;;2.30;;
21903;SDS011;11116;51.554;7.812;2022-07-23T13:13:21;3.72;;;2.78;;
21903;SDS011;11116;51.554;7.812;2022-07-23T13:15:48;2.58;;;2.35;;
21903;SDS011;11116;51.554;7.812;2022-07-23T13:18:16;3.67;;;2.70;;
21903;SDS011;11116;51.554;7.812;2022-07-23T13:20:43;4.45;;;2.25;;
21903;SDS011;11116;51.554;7.812;2022-07-23T13:23:10;6.07;;;1.92;;
21903;SDS011;11116;51.554;7.812;2022-07-23T13:25:36;6.72;;;2.33;;
21903;SDS011;11116;51.554;7.812;2022-07-23T13:28:03;2.00;;;1.80;;
21903;SDS011;11116;51.554;7.812;2022-07-23T13:30:32;3.90;;;1.90;;
21903;SDS011;11116;51.554;7.812;2022-07-23T13:32:59;2.35;;;1.67;;
21903;SDS011;11116;51.554;7.812;2022-07-23T13:35:26;2.47;;;1.60;;
21903;SDS011;11116;51.554;7.812;2022-07-23T13:37:53;3.33;;;1.73;;
21903;SDS011;11116;51.554;7.812;2022-07-23T13:40:20;4.32;;;1.83;;
21903;SDS011;11116;51.554;7.812;2022-07-23T13:42:47;3.30;;;1.60;;
21903;SDS011;11116;51.554;7.812;2022-07-23T13:45:14;3.55;;;1.40;;
21903;SDS011;11116;51.554;7.812;2022-07-23T13:47:42;3.78;;;1.67;;
21903;SDS011;11116;51.554;7.812;2022-07-23T13:50:09;3.33;;;1.83;;
21903;SDS011;11116;51.554;7.812;2022-07-23T13:52:36;3.05;;;1.92;;
21903;SDS011;11116;51.554;7.812;2022-07-23T13:55:03;1.73;;;1.63;;
21903;SDS011;11116;51.554;7.812;2022-07-23T13:57:31;3.25;;;1.65;;
21903;SDS011;11116;51.554;7.812;2022-07-23T13:59:59;3.83;;;1.55;;
21903;SDS011;11116;51.554;7.812;2022-07-23T14:02:25;1.73;;;1.63;;
21903;SDS011;11116;51.554;7.812;2022-07-23T14:04:53;1.88;;;1.63;;
21903;SDS011;11116;51.554;7.812;2022-07-23T14:07:20;2.53;;;1.67;;
21903;SDS011;11116;51.554;7.812;2022-07-23T14:09:47;2.05;;;1.80;;
21903;SDS011;11116;51.554;7.812;2022-07-23T14:12:14;2.20;;;1.80;;
21903;SDS011;11116;51.554;7.812;2022-07-23T14:14:41;2.40;;;1.38;;
21903;SDS011;11116;51.554;7.812;2022-07-23T14:17:08;2.10;;;1.80;;
21903;SDS011;11116;51.554;7.812;2022-07-23T14:19:35;1.67;;;1.38;;
21903;SDS011;11116;51.554;7.812;2022-07-23T14:22:03;2.45;;;1.77;;
21903;SDS011;11116;51.554;7.812;2022-07-23T14:24:30;4.18;;;1.63;;
21903;SDS011;11116;51.554;7.812;2022-07-23T14:26:57;2.30;;;2.10;;
21903;SDS011;11116;51.554;7.812;2022-07-23T14:29:26;2.97;;;1.50;;
21903;SDS011;11116;51.554;7.812;2022-07-23T14:31:52;2.20;;;1.35;;
21903;SDS011;11116;51.554;7.812;2022-07-23T14:34:19;1.75;;;1.50;;
21903;SDS011;11116;51.554;7.812;2022-07-23T14:36:46;2.83;;;1.48;;
21903;SDS011;11116;51.554;7.812;2022-07-23T14:39:14;3.15;;;1.60;;
21903;SDS011;11116;51.554;7.812;2022-07-23T14:41:41;2.67;;;1.70;;
21903;SDS011;11116;51.554;7.812;2022-07-23T14:44:08;2.35;;;1.65;;
21903;SDS011;11116;51.554;7.812;2022-07-23T14:46:36;1.40;;;1.30;;
21903;SDS011;11116;51.554;7.812;2022-07-23T14:49:03;2.22;;;1.95;;
21903;SDS011;11116;51.554;7.812;2022-07-23T14:51:30;2.03;;;1.45;;
21903;SDS011;11116;51.554;7.812;2022-07-23T14:53:57;1.50;;;1.40;;